sensor_id;sensor_type;location;lat;lon;timestamp;pressure;altitude;pressure_sealevel;temperature;humidity
30897;BME280;17597;52.246;21.054;2022-07-24T00:02:25;100521.63;;;20.59;95.61
30897;BME280;17597;52.246;21.054;2022-07-24T00:04:50;100524.81;;;20.61;96.27
30897;BME280;17597;52.246;21.054;2022-07-24T00:07:16;100521.16;;;20.57;97.33
30897;BME280;17597;52.246;21.054;2022-07-24T00:09:41;100528.97;;;20.59;96.36
30897;BME280;17597;52.246;21.054;2022-07-24T00:12:07;100524.53;;;20.54;98.04
30897;BME280;17597;52.246;21.054;2022-07-24T00:14:33;100525.66;;;20.53;97.78
30897;BME280;17597;52.246;21.054;2022-07-24T00:16:58;100526.59;;;20.57;97.54
30897;BME280;17597;52.246;21.054;2022-07-24T00:19:23;100518.59;;;20.61;97.43
30897;BME280;17597;52.246;21.054;2022-07-24T00:21:49;100526.59;;;20.57;97.39
30897;BME280;17597;52.246;21.054;2022-07-24T00:24:14;100533.47;;;20.55;97.67
30897;BME280;17597;52.246;21.054;2022-07-24T00:26:39;100522.31;;;20.47;98.44
30897;BME280;17597;52.246;21.054;2022-07-24T00:29:05;100519.75;;;20.51;97.88
30897;BME280;17597;52.246;21.054;2022-07-24T00:31:31;100519.09;;;20.54;97.32
30897;BME280;17597;52.246;21.054;2022-07-24T00:33:56;100526.28;;;20.50;98.38
30897;BME280;17597;52.246;21.054;2022-07-24T00:36:21;100522.31;;;20.47;98.15
30897;BME280;17597;52.246;21.054;2022-07-24T00:38:47;100520.72;;;20.38;99.15
30897;BME280;17597;52.246;21.054;2022-07-24T00:41:13;100522.97;;;20.44;98.11
30897;BME280;17597;52.246;21.054;2022-07-24T00:44:07;100525.69;;;20.44;98.78
30897;BME280;17597;52.246;21.054;2022-07-24T00:46:35;100532.03;;;20.48;98.04
30897;BME280;17597;52.246;21.054;2022-07-24T00:49:04;100530.31;;;20.44;97.56
30897;BME280;17597;52.246;21.054;2022-07-24T00:51:30;100534.59;;;20.45;97.17
30897;BME280;17597;52.246;21.054;2022-07-24T00:53:55;100534.16;;;20.43;96.72
30897;BME280;17597;52.246;21.054;2022-07-24T00:56:21;100532.81;;;20.49;96.87
30897;BME280;17597;52.246;21.054;2022-07-24T00:58:47;100540.81;;;20.45;95.99
30897;BME280;17597;52.246;21.054;2022-07-24T01:01:13;100543.88;;;20.44;97.05
30897;BME280;17597;52.246;21.054;2022-07-24T01:03:39;100549.88;;;20.41;96.74
30897;BME280;17597;52.246;21.054;2022-07-24T01:06:05;100550.41;;;20.43;96.52
30897;BME280;17597;52.246;21.054;2022-07-24T01:08:33;100544.97;;;20.34;96.21
30897;BME280;17597;52.246;21.054;2022-07-24T01:11:00;100552.81;;;20.27;97.59
30897;BME280;17597;52.246;21.054;2022-07-24T01:13:26;100556.94;;;20.33;96.83
30897;BME280;17597;52.246;21.054;2022-07-24T01:15:51;100550.56;;;20.29;97.47
30897;BME280;17597;52.246;21.054;2022-07-24T01:18:16;100554.69;;;20.35;97.37
30897;BME280;17597;52.246;21.054;2022-07-24T01:20:46;100552.47;;;20.37;96.18
30897;BME280;17597;52.246;21.054;2022-07-24T01:23:12;100552.94;;;20.39;96.13
30897;BME280;17597;52.246;21.054;2022-07-24T01:25:39;100543.72;;;20.32;96.55
30897;BME280;17597;52.246;21.054;2022-07-24T01:28:04;100566.69;;;20.26;90.21
30897;BME280;17597;52.246;21.054;2022-07-24T01:30:29;100574.50;;;20.18;89.92
30897;BME280;17597;52.246;21.054;2022-07-24T01:32:55;100575.94;;;20.16;83.03
30897;BME280;17597;52.246;21.054;2022-07-24T01:35:20;100578.06;;;20.02;81.28
30897;BME280;17597;52.246;21.054;2022-07-24T01:37:45;100580.28;;;19.91;80.80
30897;BME280;17597;52.246;21.054;2022-07-24T01:40:11;100580.28;;;19.91;77.15
30897;BME280;17597;52.246;21.054;2022-07-24T01:42:36;100593.50;;;19.84;76.09
30897;BME280;17597;52.246;21.054;2022-07-24T01:45:02;100596.06;;;19.72;77.61
30897;BME280;17597;52.246;21.054;2022-07-24T01:47:28;100602.91;;;19.69;77.12
30897;BME280;17597;52.246;21.054;2022-07-24T01:49:53;100597.03;;;19.58;77.03
30897;BME280;17597;52.246;21.054;2022-07-24T01:52:19;100602.72;;;19.48;76.31
30897;BME280;17597;52.246;21.054;2022-07-24T01:54:44;100595.03;;;19.33;75.79
30897;BME280;17597;52.246;21.054;2022-07-24T01:57:09;100584.50;;;19.31;77.01
30897;BME280;17597;52.246;21.054;2022-07-24T01:59:35;100589.59;;;19.24;75.14
30897;BME280;17597;52.246;21.054;2022-07-24T02:02:00;100596.31;;;19.27;75.32
30897;BME280;17597;52.246;21.054;2022-07-24T02:04:26;100587.88;;;19.28;75.48
30897;BME280;17597;52.246;21.054;2022-07-24T02:06:51;100596.13;;;19.23;75.27
30897;BME280;17597;52.246;21.054;2022-07-24T02:09:16;100599.13;;;19.22;75.22
30897;BME280;17597;52.246;21.054;2022-07-24T02:11:42;100607.41;;;19.17;75.45
30897;BME280;17597;52.246;21.054;2022-07-24T02:14:07;100601.31;;;19.02;76.64
30897;BME280;17597;52.246;21.054;2022-07-24T02:16:32;100606.72;;;19.02;76.62
30897;BME280;17597;52.246;21.054;2022-07-24T02:18:58;100613.84;;;18.90;76.88
30897;BME280;17597;52.246;21.054;2022-07-24T02:21:23;100609.38;;;18.85;77.90
30897;BME280;17597;52.246;21.054;2022-07-24T02:23:49;100611.75;;;18.87;77.08
30897;BME280;17597;52.246;21.054;2022-07-24T02:26:14;100617.34;;;18.90;76.41
30897;BME280;17597;52.246;21.054;2022-07-24T02:28:39;100612.25;;;18.89;75.97
30897;BME280;17597;52.246;21.054;2022-07-24T02:31:05;100609.34;;;18.76;76.67
30897;BME280;17597;52.246;21.054;2022-07-24T02:33:30;100607.09;;;18.78;75.79
30897;BME280;17597;52.246;21.054;2022-07-24T02:35:55;100612.72;;;18.82;75.14
30897;BME280;17597;52.246;21.054;2022-07-24T02:38:20;100614.09;;;18.79;75.65
30897;BME280;17597;52.246;21.054;2022-07-24T02:40:46;100611.09;;;18.81;74.39
30897;BME280;17597;52.246;21.054;2022-07-24T02:43:11;100618.25;;;18.77;74.95
30897;BME280;17597;52.246;21.054;2022-07-24T02:45:36;100611.34;;;18.71;75.44
30897;BME280;17597;52.246;21.054;2022-07-24T02:48:02;100610.44;;;18.75;75.57
30897;BME280;17597;52.246;21.054;2022-07-24T02:50:32;100617.28;;;18.73;74.32
30897;BME280;17597;52.246;21.054;2022-07-24T02:52:58;100611.06;;;18.72;74.43
30897;BME280;17597;52.246;21.054;2022-07-24T02:55:23;100605.78;;;18.67;74.12
30897;BME280;17597;52.246;21.054;2022-07-24T02:57:49;100609.28;;;18.68;73.78
30897;BME280;17597;52.246;21.054;2022-07-24T03:00:16;100613.09;;;18.67;73.84
30897;BME280;17597;52.246;21.054;2022-07-24T03:02:42;100613.03;;;18.58;74.80
30897;BME280;17597;52.246;21.054;2022-07-24T03:05:08;100607.38;;;18.46;76.04
30897;BME280;17597;52.246;21.054;2022-07-24T03:07:34;100602.47;;;18.48;75.31
30897;BME280;17597;52.246;21.054;2022-07-24T03:10:03;100618.03;;;18.42;75.26
30897;BME280;17597;52.246;21.054;2022-07-24T03:12:29;100616.63;;;18.45;76.03
30897;BME280;17597;52.246;21.054;2022-07-24T03:14:54;100627.72;;;18.43;76.05
30897;BME280;17597;52.246;21.054;2022-07-24T03:17:19;100630.28;;;18.48;75.84
30897;BME280;17597;52.246;21.054;2022-07-24T03:19:45;100634.59;;;18.49;75.32
30897;BME280;17597;52.246;21.054;2022-07-24T03:22:10;100631.22;;;18.44;74.75
30897;BME280;17597;52.246;21.054;2022-07-24T03:24:35;100633.78;;;18.49;75.03
30897;BME280;17597;52.246;21.054;2022-07-24T03:27:01;100635.91;;;18.61;72.77
30897;BME280;17597;52.246;21.054;2022-07-24T03:29:26;100639.25;;;18.58;72.88
30897;BME280;17597;52.246;21.054;2022-07-24T03:31:52;100648.97;;;18.59;73.17
30897;BME280;17597;52.246;21.054;2022-07-24T03:34:17;100641.78;;;18.54;73.85
30897;BME280;17597;52.246;21.054;2022-07-24T03:36:42;100650.00;;;18.49;73.99
30897;BME280;17597;52.246;21.054;2022-07-24T03:39:08;100649.03;;;18.45;74.40
30897;BME280;17597;52.246;21.054;2022-07-24T03:41:33;100650.22;;;18.53;73.62
30897;BME280;17597;52.246;21.054;2022-07-24T03:43:59;100646.72;;;18.52;73.29
30897;BME280;17597;52.246;21.054;2022-07-24T03:46:24;100637.25;;;18.41;74.67
30897;BME280;17597;52.246;21.054;2022-07-24T03:48:49;100652.28;;;18.56;74.77
30897;BME280;17597;52.246;21.054;2022-07-24T03:51:15;100655.63;;;18.53;73.61
30897;BME280;17597;52.246;21.054;2022-07-24T03:53:40;100658.44;;;18.47;73.46
30897;BME280;17597;52.246;21.054;2022-07-24T03:56:09;100660.53;;;18.50;73.63
30897;BME280;17597;52.246;21.054;2022-07-24T03:58:38;100673.69;;;18.43;74.41
30897;BME280;17597;52.246;21.054;2022-07-24T04:01:03;100664.78;;;18.43;73.45
30897;BME280;17597;52.246;21.054;2022-07-24T04:03:28;100664.28;;;18.41;73.58
30897;BME280;17597;52.246;21.054;2022-07-24T04:05:54;100662.94;;;18.30;74.72
30897;BME280;17597;52.246;21.054;2022-07-24T04:08:19;100660.00;;;18.40;73.55
30897;BME280;17597;52.246;21.054;2022-07-24T04:10:44;100669.00;;;18.35;73.96
30897;BME280;17597;52.246;21.054;2022-07-24T04:13:10;100663.03;;;18.25;74.30
30897;BME280;17597;52.246;21.054;2022-07-24T04:15:35;100662.56;;;18.23;73.51
30897;BME280;17597;52.246;21.054;2022-07-24T04:18:01;100670.09;;;18.34;72.80
30897;BME280;17597;52.246;21.054;2022-07-24T04:20:26;100666.78;;;18.37;72.30
30897;BME280;17597;52.246;21.054;2022-07-24T04:22:52;100666.94;;;18.32;72.33
30897;BME280;17597;52.246;21.054;2022-07-24T04:25:17;100671.03;;;18.30;72.91
30897;BME280;17597;52.246;21.054;2022-07-24T04:27:43;100667.28;;;18.17;73.58
30897;BME280;17597;52.246;21.054;2022-07-24T04:30:09;100667.81;;;18.28;71.94
30897;BME280;17597;52.246;21.054;2022-07-24T04:32:35;100677.53;;;18.29;71.60
30897;BME280;17597;52.246;21.054;2022-07-24T04:35:00;100673.84;;;18.25;72.45
30897;BME280;17597;52.246;21.054;2022-07-24T04:37:26;100682.56;;;18.21;73.46
30897;BME280;17597;52.246;21.054;2022-07-24T04:39:51;100672.50;;;18.13;74.12
30897;BME280;17597;52.246;21.054;2022-07-24T04:42:16;100674.47;;;18.21;74.33
30897;BME280;17597;52.246;21.054;2022-07-24T04:44:41;100676.38;;;18.21;74.99
30897;BME280;17597;52.246;21.054;2022-07-24T04:47:07;100681.53;;;18.31;74.33
30897;BME280;17597;52.246;21.054;2022-07-24T04:49:32;100688.16;;;18.25;74.65
30897;BME280;17597;52.246;21.054;2022-07-24T04:51:57;100687.06;;;18.26;74.22
30897;BME280;17597;52.246;21.054;2022-07-24T04:54:23;100689.50;;;18.36;74.22
30897;BME280;17597;52.246;21.054;2022-07-24T04:56:48;100688.66;;;18.49;73.48
30897;BME280;17597;52.246;21.054;2022-07-24T04:59:14;100692.53;;;18.57;72.63
30897;BME280;17597;52.246;21.054;2022-07-24T05:01:39;100687.19;;;18.43;73.43
30897;BME280;17597;52.246;21.054;2022-07-24T05:04:05;100681.41;;;18.36;74.32
30897;BME280;17597;52.246;21.054;2022-07-24T05:06:30;100692.09;;;18.41;74.24
30897;BME280;17597;52.246;21.054;2022-07-24T05:08:56;100697.75;;;18.54;73.77
30897;BME280;17597;52.246;21.054;2022-07-24T05:11:21;100697.88;;;18.48;72.65
30897;BME280;17597;52.246;21.054;2022-07-24T05:13:46;100701.97;;;18.46;72.64
30897;BME280;17597;52.246;21.054;2022-07-24T05:16:12;100701.50;;;18.44;73.42
30897;BME280;17597;52.246;21.054;2022-07-24T05:18:37;100703.66;;;18.56;71.96
30897;BME280;17597;52.246;21.054;2022-07-24T05:21:02;100705.13;;;18.62;70.11
30897;BME280;17597;52.246;21.054;2022-07-24T05:23:28;100708.75;;;18.57;70.35
30897;BME280;17597;52.246;21.054;2022-07-24T05:25:53;100698.97;;;18.47;70.78
30897;BME280;17597;52.246;21.054;2022-07-24T05:28:19;100698.06;;;18.52;69.65
30897;BME280;17597;52.246;21.054;2022-07-24T05:30:44;100703.50;;;18.61;68.85
30897;BME280;17597;52.246;21.054;2022-07-24T05:33:10;100701.03;;;18.64;68.04
30897;BME280;17597;52.246;21.054;2022-07-24T05:35:35;100702.13;;;18.63;68.54
30897;BME280;17597;52.246;21.054;2022-07-24T05:38:00;100705.63;;;18.64;68.67
30897;BME280;17597;52.246;21.054;2022-07-24T05:40:26;100710.00;;;18.73;67.84
30897;BME280;17597;52.246;21.054;2022-07-24T05:42:51;100707.91;;;18.70;67.22
30897;BME280;17597;52.246;21.054;2022-07-24T05:45:16;100701.69;;;18.70;67.48
30897;BME280;17597;52.246;21.054;2022-07-24T05:47:42;100704.72;;;18.68;68.19
30897;BME280;17597;52.246;21.054;2022-07-24T05:50:08;100705.56;;;18.77;68.00
30897;BME280;17597;52.246;21.054;2022-07-24T05:52:34;100701.94;;;18.82;67.81
30897;BME280;17597;52.246;21.054;2022-07-24T05:55:00;100709.59;;;18.89;67.09
30897;BME280;17597;52.246;21.054;2022-07-24T05:57:25;100713.31;;;18.93;65.48
30897;BME280;17597;52.246;21.054;2022-07-24T05:59:50;100716.19;;;18.96;64.93
30897;BME280;17597;52.246;21.054;2022-07-24T06:02:16;100720.16;;;18.99;64.15
30897;BME280;17597;52.246;21.054;2022-07-24T06:04:41;100709.03;;;19.00;64.67
30897;BME280;17597;52.246;21.054;2022-07-24T06:07:09;100718.78;;;19.10;62.69
30897;BME280;17597;52.246;21.054;2022-07-24T06:09:35;100726.09;;;19.10;61.98
30897;BME280;17597;52.246;21.054;2022-07-24T06:12:01;100723.03;;;19.02;61.22
30897;BME280;17597;52.246;21.054;2022-07-24T06:14:26;100726.69;;;18.98;61.60
30897;BME280;17597;52.246;21.054;2022-07-24T06:16:52;100723.00;;;18.94;61.58
30897;BME280;17597;52.246;21.054;2022-07-24T06:19:17;100720.78;;;18.96;61.30
30897;BME280;17597;52.246;21.054;2022-07-24T06:21:42;100725.75;;;19.02;61.73
30897;BME280;17597;52.246;21.054;2022-07-24T06:24:08;100727.47;;;18.98;62.36
30897;BME280;17597;52.246;21.054;2022-07-24T06:26:33;100725.94;;;19.06;62.15
30897;BME280;17597;52.246;21.054;2022-07-24T06:28:58;100725.03;;;19.19;60.90
30897;BME280;17597;52.246;21.054;2022-07-24T06:31:24;100719.19;;;19.26;59.93
30897;BME280;17597;52.246;21.054;2022-07-24T06:33:49;100725.72;;;19.25;60.29
30897;BME280;17597;52.246;21.054;2022-07-24T06:36:15;100722.19;;;19.24;60.44
30897;BME280;17597;52.246;21.054;2022-07-24T06:38:41;100712.97;;;19.25;61.53
30897;BME280;17597;52.246;21.054;2022-07-24T06:41:06;100727.19;;;19.40;60.75
30897;BME280;17597;52.246;21.054;2022-07-24T06:43:32;100737.00;;;19.58;60.25
30897;BME280;17597;52.246;21.054;2022-07-24T06:45:57;100731.28;;;19.59;59.88
30897;BME280;17597;52.246;21.054;2022-07-24T06:48:23;100725.22;;;19.62;59.65
30897;BME280;17597;52.246;21.054;2022-07-24T06:50:48;100728.88;;;19.58;60.16
30897;BME280;17597;52.246;21.054;2022-07-24T06:53:14;100723.47;;;19.67;59.77
30897;BME280;17597;52.246;21.054;2022-07-24T06:55:40;100726.34;;;19.61;59.92
30897;BME280;17597;52.246;21.054;2022-07-24T06:58:05;100731.44;;;19.63;59.85
30897;BME280;17597;52.246;21.054;2022-07-24T07:00:31;100730.69;;;19.80;58.99
30897;BME280;17597;52.246;21.054;2022-07-24T07:02:57;100741.84;;;19.87;58.73
30897;BME280;17597;52.246;21.054;2022-07-24T07:05:22;100722.59;;;19.88;58.79
30897;BME280;17597;52.246;21.054;2022-07-24T07:07:49;100724.16;;;19.98;57.80
30897;BME280;17597;52.246;21.054;2022-07-24T07:10:15;100728.31;;;20.04;56.75
30897;BME280;17597;52.246;21.054;2022-07-24T07:12:40;100739.63;;;20.06;56.83
30897;BME280;17597;52.246;21.054;2022-07-24T07:15:06;100736.47;;;20.04;57.04
30897;BME280;17597;52.246;21.054;2022-07-24T07:17:32;100740.75;;;20.05;56.89
30897;BME280;17597;52.246;21.054;2022-07-24T07:19:57;100734.25;;;20.23;56.24
30897;BME280;17597;52.246;21.054;2022-07-24T07:22:23;100735.53;;;20.26;56.31
30897;BME280;17597;52.246;21.054;2022-07-24T07:24:48;100740.00;;;20.57;54.93
30897;BME280;17597;52.246;21.054;2022-07-24T07:27:14;100730.53;;;21.74;52.94
30897;BME280;17597;52.246;21.054;2022-07-24T07:29:39;100736.97;;;25.16;44.65
30897;BME280;17597;52.246;21.054;2022-07-24T07:32:05;100753.00;;;28.52;36.45
30897;BME280;17597;52.246;21.054;2022-07-24T07:34:30;100753.47;;;31.20;31.00
30897;BME280;17597;52.246;21.054;2022-07-24T07:36:55;100742.66;;;32.18;29.31
30897;BME280;17597;52.246;21.054;2022-07-24T07:39:21;100746.34;;;33.26;27.80
30897;BME280;17597;52.246;21.054;2022-07-24T07:41:46;100754.66;;;34.97;25.16
30897;BME280;17597;52.246;21.054;2022-07-24T07:44:12;100745.66;;;36.03;23.87
30897;BME280;17597;52.246;21.054;2022-07-24T07:46:37;100757.53;;;36.43;23.09
30897;BME280;17597;52.246;21.054;2022-07-24T07:49:03;100749.63;;;36.41;22.43
30897;BME280;17597;52.246;21.054;2022-07-24T07:51:28;100751.63;;;37.10;22.14
30897;BME280;17597;52.246;21.054;2022-07-24T07:53:54;100761.41;;;38.46;20.87
30897;BME280;17597;52.246;21.054;2022-07-24T07:56:19;100765.53;;;37.10;21.64
30897;BME280;17597;52.246;21.054;2022-07-24T07:58:45;100761.25;;;35.06;23.73
30897;BME280;17597;52.246;21.054;2022-07-24T08:01:10;100764.16;;;35.46;23.47
30897;BME280;17597;52.246;21.054;2022-07-24T08:03:36;100753.63;;;36.40;22.29
30897;BME280;17597;52.246;21.054;2022-07-24T08:06:02;100770.03;;;35.95;22.57
30897;BME280;17597;52.246;21.054;2022-07-24T08:08:29;100762.25;;;34.93;23.99
30897;BME280;17597;52.246;21.054;2022-07-24T08:10:55;100773.31;;;33.19;25.59
30897;BME280;17597;52.246;21.054;2022-07-24T08:13:20;100769.22;;;31.70;27.60
30897;BME280;17597;52.246;21.054;2022-07-24T08:15:46;100774.00;;;32.71;26.87
30897;BME280;17597;52.246;21.054;2022-07-24T08:18:11;100774.50;;;32.51;26.59
30897;BME280;17597;52.246;21.054;2022-07-24T08:20:37;100777.13;;;31.50;28.88
30897;BME280;17597;52.246;21.054;2022-07-24T08:23:02;100784.75;;;30.41;30.08
30897;BME280;17597;52.246;21.054;2022-07-24T08:25:27;100791.69;;;29.10;32.24
30897;BME280;17597;52.246;21.054;2022-07-24T08:27:53;100786.91;;;28.37;34.07
30897;BME280;17597;52.246;21.054;2022-07-24T08:30:18;100778.91;;;27.68;35.14
30897;BME280;17597;52.246;21.054;2022-07-24T08:32:44;100783.75;;;27.32;36.08
30897;BME280;17597;52.246;21.054;2022-07-24T08:35:12;100781.66;;;27.22;36.29
30897;BME280;17597;52.246;21.054;2022-07-24T08:37:41;100782.38;;;26.58;37.68
30897;BME280;17597;52.246;21.054;2022-07-24T08:40:08;100786.09;;;26.30;38.50
30897;BME280;17597;52.246;21.054;2022-07-24T08:42:37;100786.06;;;25.76;40.09
30897;BME280;17597;52.246;21.054;2022-07-24T08:45:04;100782.53;;;25.44;40.46
30897;BME280;17597;52.246;21.054;2022-07-24T08:47:30;100796.91;;;24.41;44.46
30897;BME280;17597;52.246;21.054;2022-07-24T08:50:00;100789.13;;;24.83;42.49
30897;BME280;17597;52.246;21.054;2022-07-24T08:52:28;100799.44;;;24.62;43.22
30897;BME280;17597;52.246;21.054;2022-07-24T08:54:54;100794.56;;;24.03;44.73
30897;BME280;17597;52.246;21.054;2022-07-24T08:57:20;100795.38;;;23.66;46.39
30897;BME280;17597;52.246;21.054;2022-07-24T08:59:45;100794.75;;;23.36;46.88
30897;BME280;17597;52.246;21.054;2022-07-24T09:02:10;100783.22;;;22.94;48.37
30897;BME280;17597;52.246;21.054;2022-07-24T09:04:44;100790.47;;;22.69;48.88
30897;BME280;17597;52.246;21.054;2022-07-24T09:07:18;100789.88;;;22.43;49.78
30897;BME280;17597;52.246;21.054;2022-07-24T09:09:58;100800.63;;;22.39;50.19
30897;BME280;17597;52.246;21.054;2022-07-24T09:12:24;100789.00;;;22.51;50.88
30897;BME280;17597;52.246;21.054;2022-07-24T09:14:49;100791.00;;;22.84;49.85
30897;BME280;17597;52.246;21.054;2022-07-24T09:17:17;100801.22;;;23.20;48.99
30897;BME280;17597;52.246;21.054;2022-07-24T09:19:57;100796.03;;;22.94;49.78
30897;BME280;17597;52.246;21.054;2022-07-24T09:25:17;100802.59;;;22.93;50.14
30897;BME280;17597;52.246;21.054;2022-07-24T09:27:56;100804.88;;;22.91;49.92
30897;BME280;17597;52.246;21.054;2022-07-24T09:30:42;100796.47;;;22.75;50.35
30897;BME280;17597;52.246;21.054;2022-07-24T09:35:38;100804.44;;;22.80;50.06
30897;BME280;17597;52.246;21.054;2022-07-24T09:38:07;100800.34;;;23.07;48.95
30897;BME280;17597;52.246;21.054;2022-07-24T09:45:59;100809.75;;;23.43;48.37
30897;BME280;17597;52.246;21.054;2022-07-24T09:51:01;100813.28;;;23.43;48.71
30897;BME280;17597;52.246;21.054;2022-07-24T09:53:29;100813.28;;;23.43;48.38
30897;BME280;17597;52.246;21.054;2022-07-24T09:56:08;100806.16;;;23.05;49.40
30897;BME280;17597;52.246;21.054;2022-07-24T09:58:40;100807.78;;;22.65;50.53
30897;BME280;17597;52.246;21.054;2022-07-24T10:01:14;100805.41;;;22.42;51.58
30897;BME280;17597;52.246;21.054;2022-07-24T10:03:42;100818.81;;;22.27;52.07
30897;BME280;17597;52.246;21.054;2022-07-24T10:06:10;100812.84;;;22.04;52.65
30897;BME280;17597;52.246;21.054;2022-07-24T10:08:39;100814.69;;;21.91;53.53
30897;BME280;17597;52.246;21.054;2022-07-24T10:11:05;100818.13;;;22.00;54.51
30897;BME280;17597;52.246;21.054;2022-07-24T10:13:30;100826.41;;;22.12;54.40
30897;BME280;17597;52.246;21.054;2022-07-24T10:19:00;100829.38;;;22.19;54.26
30897;BME280;17597;52.246;21.054;2022-07-24T10:21:29;100827.31;;;22.46;53.49
30897;BME280;17597;52.246;21.054;2022-07-24T10:27:01;100833.16;;;22.57;53.59
30897;BME280;17597;52.246;21.054;2022-07-24T10:29:33;100830.94;;;22.50;54.05
30897;BME280;17597;52.246;21.054;2022-07-24T10:31:59;100830.66;;;22.43;54.36
30897;BME280;17597;52.246;21.054;2022-07-24T10:37:24;100845.00;;;22.31;54.75
30897;BME280;17597;52.246;21.054;2022-07-24T10:45:38;100836.25;;;22.67;53.99
30897;BME280;17597;52.246;21.054;2022-07-24T10:56:38;100836.25;;;23.66;50.25
30897;BME280;17597;52.246;21.054;2022-07-24T10:59:08;100842.50;;;23.79;50.95
30897;BME280;17597;52.246;21.054;2022-07-24T11:01:48;100835.25;;;23.83;49.88
30897;BME280;17597;52.246;21.054;2022-07-24T11:09:15;100841.38;;;24.05;50.38
30897;BME280;17597;52.246;21.054;2022-07-24T11:14:47;100842.28;;;24.09;51.12
30897;BME280;17597;52.246;21.054;2022-07-24T11:20:12;100840.31;;;24.21;50.21
30897;BME280;17597;52.246;21.054;2022-07-24T11:25:21;100841.84;;;24.07;49.70
30897;BME280;17597;52.246;21.054;2022-07-24T11:27:52;100837.94;;;24.20;49.41
30897;BME280;17597;52.246;21.054;2022-07-24T11:30:21;100832.16;;;24.21;49.45
30897;BME280;17597;52.246;21.054;2022-07-24T11:32:47;100837.59;;;24.21;48.88
30897;BME280;17597;52.246;21.054;2022-07-24T11:35:12;100841.03;;;24.06;50.83
30897;BME280;17597;52.246;21.054;2022-07-24T11:37:40;100842.03;;;24.02;49.99
30897;BME280;17597;52.246;21.054;2022-07-24T11:40:07;100841.38;;;24.05;49.81
30897;BME280;17597;52.246;21.054;2022-07-24T11:42:34;100846.16;;;24.08;50.30
30897;BME280;17597;52.246;21.054;2022-07-24T11:45:00;100838.75;;;24.08;49.48
30897;BME280;17597;52.246;21.054;2022-07-24T11:47:27;100842.25;;;24.21;49.07
30897;BME280;17597;52.246;21.054;2022-07-24T11:49:54;100844.53;;;24.19;49.55
30897;BME280;17597;52.246;21.054;2022-07-24T11:52:25;100848.53;;;24.09;50.38
30897;BME280;17597;52.246;21.054;2022-07-24T11:54:54;100849.66;;;24.20;49.54
30897;BME280;17597;52.246;21.054;2022-07-24T11:57:23;100853.97;;;24.34;48.97
30897;BME280;17597;52.246;21.054;2022-07-24T11:59:50;100855.91;;;24.33;49.27
30897;BME280;17597;52.246;21.054;2022-07-24T12:02:17;100857.13;;;24.23;49.50
30897;BME280;17597;52.246;21.054;2022-07-24T12:04:44;100862.38;;;24.29;49.40
30897;BME280;17597;52.246;21.054;2022-07-24T12:07:18;100859.66;;;24.29;48.99
30897;BME280;17597;52.246;21.054;2022-07-24T12:15:09;100861.03;;;24.10;51.30
30897;BME280;17597;52.246;21.054;2022-07-24T12:17:56;100863.66;;;24.31;49.82
30897;BME280;17597;52.246;21.054;2022-07-24T12:20:23;100853.53;;;24.32;49.26
30897;BME280;17597;52.246;21.054;2022-07-24T12:22:49;100849.66;;;24.33;48.63
30897;BME280;17597;52.246;21.054;2022-07-24T12:25:16;100854.09;;;23.76;50.57
30897;BME280;17597;52.246;21.054;2022-07-24T12:27:43;100856.72;;;23.73;50.46
30897;BME280;17597;52.246;21.054;2022-07-24T12:35:18;100860.38;;;23.44;50.69
30897;BME280;17597;52.246;21.054;2022-07-24T12:37:43;100853.09;;;23.35;51.07
30897;BME280;17597;52.246;21.054;2022-07-24T12:40:09;100852.63;;;23.33;51.35
30897;BME280;17597;52.246;21.054;2022-07-24T12:42:46;100851.13;;;23.24;51.93
30897;BME280;17597;52.246;21.054;2022-07-24T12:45:12;100844.28;;;23.18;52.48
30897;BME280;17597;52.246;21.054;2022-07-24T12:48:07;100858.41;;;23.20;52.40
30897;BME280;17597;52.246;21.054;2022-07-24T12:50:32;100847.34;;;23.16;52.28
30897;BME280;17597;52.246;21.054;2022-07-24T12:53:07;100848.25;;;23.08;52.78
30897;BME280;17597;52.246;21.054;2022-07-24T12:55:34;100838.97;;;23.09;52.96
30897;BME280;17597;52.246;21.054;2022-07-24T12:58:02;100849.66;;;22.93;53.73
30897;BME280;17597;52.246;21.054;2022-07-24T13:00:29;100855.06;;;23.14;53.47
30897;BME280;17597;52.246;21.054;2022-07-24T13:02:55;100855.63;;;23.41;52.51
30897;BME280;17597;52.246;21.054;2022-07-24T13:08:03;100852.56;;;23.42;52.49
30897;BME280;17597;52.246;21.054;2022-07-24T13:10:28;100850.34;;;23.23;52.92
30897;BME280;17597;52.246;21.054;2022-07-24T13:12:54;100847.25;;;23.13;53.50
30897;BME280;17597;52.246;21.054;2022-07-24T13:15:20;100844.94;;;23.02;53.19
30897;BME280;17597;52.246;21.054;2022-07-24T13:17:45;100850.84;;;23.04;53.11
30897;BME280;17597;52.246;21.054;2022-07-24T13:20:11;100859.09;;;22.96;53.60
30897;BME280;17597;52.246;21.054;2022-07-24T13:22:36;100855.63;;;23.41;52.13
30897;BME280;17597;52.246;21.054;2022-07-24T13:25:02;100844.16;;;23.47;51.63
30897;BME280;17597;52.246;21.054;2022-07-24T13:27:27;100850.38;;;23.35;51.63
30897;BME280;17597;52.246;21.054;2022-07-24T13:29:53;100847.97;;;23.22;52.00
30897;BME280;17597;52.246;21.054;2022-07-24T13:32:19;100844.91;;;23.35;51.80
30897;BME280;17597;52.246;21.054;2022-07-24T13:34:45;100849.16;;;23.57;51.44
30897;BME280;17597;52.246;21.054;2022-07-24T13:37:10;100838.63;;;23.92;50.24
30897;BME280;17597;52.246;21.054;2022-07-24T13:39:36;100848.63;;;24.25;49.15
30897;BME280;17597;52.246;21.054;2022-07-24T13:42:05;100849.78;;;24.36;48.81